createdAt,value
2023-04-11T00:01:11.240Z,99.90
2023-04-11T00:03:44.160Z,99.90
2023-04-11T00:06:27.677Z,99.90
2023-04-11T00:08:31.120Z,99.90
2023-04-11T00:11:21.527Z,99.90
2023-04-11T00:13:55.940Z,99.90
2023-04-11T00:24:38.934Z,99.90
2023-04-11T00:38:49.194Z,99.90
2023-04-11T00:46:51.164Z,99.90
2023-04-11T00:49:09.008Z,99.90
2023-04-11T00:57:49.788Z,99.90
2023-04-11T01:03:55.772Z,99.90
2023-04-11T01:06:22.644Z,99.90
2023-04-11T01:11:48.189Z,99.90
2023-04-11T01:20:13.102Z,99.90
2023-04-11T01:26:01.859Z,99.90
2023-04-11T01:29:25.133Z,99.90
2023-04-11T01:39:03.104Z,99.90
2023-04-11T01:42:02.106Z,99.90
2023-04-11T01:47:20.187Z,99.90
2023-04-11T01:50:02.389Z,99.90
2023-04-11T01:52:37.678Z,99.90
2023-04-11T01:55:02.399Z,99.90
2023-04-11T01:58:02.140Z,99.90
2023-04-11T02:02:54.981Z,99.90
2023-04-11T02:08:12.146Z,99.90
2023-04-11T02:35:03.935Z,99.90
2023-04-11T02:41:50.970Z,99.90
2023-04-11T02:44:50.220Z,99.90
2023-04-11T02:49:51.874Z,99.90
2023-04-11T02:52:33.689Z,99.90
2023-04-11T02:54:51.672Z,99.90
2023-04-11T03:06:56.436Z,99.90
2023-04-11T03:09:31.466Z,99.90
2023-04-11T03:12:26.604Z,99.90
2023-04-11T03:14:46.334Z,99.90
2023-04-11T03:24:50.523Z,99.90
2023-04-11T03:31:02.898Z,99.90
2023-04-11T03:34:15.178Z,99.90
2023-04-11T03:36:22.443Z,99.90
2023-04-11T03:38:59.868Z,99.90
2023-04-11T04:03:57.592Z,99.90
2023-04-11T04:43:11.381Z,99.90
2023-04-11T04:45:18.479Z,99.90
2023-04-11T04:47:34.677Z,99.90
2023-04-11T04:49:44.123Z,99.90
2023-04-11T04:53:07.059Z,99.90
2023-04-11T04:55:14.475Z,99.90
2023-04-11T05:00:26.045Z,99.90
2023-04-11T05:06:25.171Z,99.90
2023-04-11T05:12:13.967Z,99.90
2023-04-11T05:22:12.648Z,99.90
2023-04-11T05:24:52.306Z,99.90
2023-04-11T05:29:21.984Z,99.90
2023-04-11T05:31:56.594Z,99.90
2023-04-11T05:34:59.016Z,99.90
2023-04-11T05:44:36.945Z,99.90
2023-04-11T05:47:12.037Z,99.90
2023-04-11T05:56:48.968Z,99.90
2023-04-11T06:15:30.603Z,99.90
2023-04-11T06:22:02.915Z,99.90
2023-04-11T07:43:54.655Z,99.90
2023-04-11T08:01:50.907Z,99.90
2023-04-11T08:04:35.531Z,99.90
2023-04-11T08:07:49.970Z,99.90
2023-04-11T08:10:55.759Z,99.90
2023-04-11T08:13:13.819Z,99.90
2023-04-11T08:37:19.268Z,99.90
2023-04-11T09:13:10.852Z,99.90
2023-04-11T09:15:45.603Z,99.90
2023-04-11T09:28:29.922Z,99.90
2023-04-11T09:31:11.567Z,99.90
2023-04-11T09:33:39.234Z,99.90
2023-04-11T09:35:49.661Z,99.90
2023-04-11T09:41:39.194Z,99.90
2023-04-11T09:49:38.827Z,99.20
2023-04-11T09:52:21.957Z,98.20
2023-04-11T10:04:34.987Z,97.90
2023-04-11T10:12:37.095Z,96.90
2023-04-11T10:42:23.224Z,99.90
2023-04-11T10:55:50.635Z,99.90
2023-04-11T11:04:03.177Z,99.90
2023-04-11T11:05:24.707Z,99.90
2023-04-11T11:15:11.830Z,99.50
2023-04-11T11:24:48.464Z,96.90
2023-04-11T11:30:23.728Z,95.80
2023-04-11T11:33:14.774Z,95.50
2023-04-11T11:45:56.824Z,97.20
2023-04-11T11:52:12.881Z,95.30
2023-04-11T11:54:16.542Z,95.50
2023-04-11T12:01:06.900Z,94.90
2023-04-11T12:04:00.626Z,95.80
2023-04-11T12:06:09.232Z,96.10
2023-04-11T12:08:15.192Z,95.10
2023-04-11T12:10:21.853Z,95.60
2023-04-11T12:12:26.355Z,94.70
2023-04-11T12:14:37.780Z,94.90
2023-04-11T12:16:41.119Z,94.50
2023-04-11T12:18:48.097Z,93.80
2023-04-11T12:20:55.290Z,93.60
2023-04-11T12:23:00.438Z,92.70
2023-04-11T12:25:14.179Z,92.40
2023-04-11T12:27:27.766Z,92.20
2023-04-11T12:29:44.292Z,92.00
2023-04-11T12:32:55.266Z,92.90
2023-04-11T12:35:02.932Z,91.80
2023-04-11T12:37:15.366Z,91.70
2023-04-11T12:39:49.433Z,91.20
2023-04-11T12:44:47.062Z,91.10
2023-04-11T12:50:18.036Z,88.90
2023-04-11T12:52:59.141Z,88.20
2023-04-11T12:55:27.487Z,88.10
2023-04-11T12:58:13.600Z,88.20
2023-04-11T13:00:53.276Z,90.00
2023-04-11T13:03:25.074Z,86.70
2023-04-11T13:11:16.298Z,81.40
2023-04-11T13:13:24.060Z,81.50
2023-04-11T13:15:41.156Z,79.30
2023-04-11T13:57:58.605Z,85.00
2023-04-11T14:17:32.399Z,81.50
2023-04-11T14:19:50.978Z,80.50
2023-04-11T14:22:01.573Z,83.00
2023-04-11T14:24:20.640Z,78.60
2023-04-11T14:26:39.400Z,77.10
2023-04-11T14:28:53.419Z,75.90
2023-04-11T14:31:07.145Z,78.50
2023-04-11T14:34:03.919Z,75.70
2023-04-11T14:37:00.534Z,75.80
2023-04-11T14:39:33.523Z,75.20
2023-04-11T14:41:49.522Z,72.90
2023-04-11T14:44:12.475Z,74.40
2023-04-11T14:49:31.490Z,74.90
2023-04-11T14:52:04.378Z,75.50
2023-04-11T14:54:22.813Z,74.60
2023-04-11T15:02:00.337Z,76.20
2023-04-11T15:04:11.858Z,76.00
2023-04-11T15:06:22.131Z,74.60
2023-04-11T15:08:43.055Z,77.10
2023-04-11T15:11:14.545Z,76.90
2023-04-11T15:16:15.922Z,78.20
2023-04-11T15:18:23.805Z,77.60
2023-04-11T15:20:27.021Z,76.90
2023-04-11T15:22:48.983Z,78.60
2023-04-11T15:24:53.644Z,77.70
2023-04-11T15:26:56.891Z,77.00
2023-04-11T15:28:59.999Z,75.60
2023-04-11T15:31:05.719Z,74.80
2023-04-11T15:33:12.914Z,72.40
2023-04-11T15:35:16.338Z,71.80
2023-04-11T15:37:19.716Z,72.80
2023-04-11T15:39:23.217Z,71.90
2023-04-11T15:41:36.037Z,71.70
2023-04-11T15:43:40.890Z,71.70
2023-04-11T15:45:45.212Z,71.20
2023-04-11T15:47:54.601Z,71.50
2023-04-11T15:49:58.923Z,71.70
2023-04-11T15:52:25.216Z,69.40
2023-04-11T15:54:35.745Z,68.40
2023-04-11T15:57:33.346Z,68.40
2023-04-11T16:00:11.725Z,69.10
2023-04-11T16:02:45.175Z,69.60
2023-04-11T16:07:48.065Z,68.20
2023-04-11T16:10:05.274Z,68.80
2023-04-11T16:12:51.309Z,68.50
2023-04-11T16:14:55.964Z,67.70
2023-04-11T16:17:23.458Z,68.30
2023-04-11T16:22:20.214Z,68.70
2023-04-11T16:25:37.342Z,69.80
2023-04-11T16:27:46.963Z,71.10
2023-04-11T16:29:56.275Z,72.60
2023-04-11T16:32:02.873Z,73.20
2023-04-11T16:34:28.344Z,73.30
2023-04-11T16:36:38.595Z,73.80
2023-04-11T16:38:52.361Z,74.90
2023-04-11T16:41:03.647Z,74.70
2023-04-11T16:43:34.662Z,74.60
2023-04-11T16:46:07.629Z,75.30
2023-04-11T16:48:23.600Z,73.90
2023-04-11T16:50:35.056Z,72.60
2023-04-11T16:52:46.431Z,72.20
2023-04-11T16:54:54.437Z,72.00
2023-04-11T16:57:35.553Z,71.10
2023-04-11T16:59:40.328Z,72.10
2023-04-11T17:01:48.486Z,73.40
2023-04-11T17:03:55.435Z,73.90
2023-04-11T17:06:03.122Z,74.60
2023-04-11T17:08:06.638Z,75.50
2023-04-11T17:10:13.476Z,75.30
2023-04-11T17:12:17.169Z,77.80
2023-04-11T17:14:22.072Z,77.40
2023-04-11T17:16:30.224Z,77.40
2023-04-11T17:20:57.022Z,78.70
2023-04-11T17:23:06.283Z,79.70
2023-04-11T17:25:24.196Z,80.20
2023-04-11T17:27:27.578Z,81.30
2023-04-11T17:29:36.890Z,80.80
2023-04-11T17:31:46.169Z,81.20
2023-04-11T17:33:55.822Z,81.60
2023-04-11T17:35:59.834Z,82.00
2023-04-11T17:38:03.348Z,82.60
2023-04-11T17:40:17.439Z,82.90
2023-04-11T17:42:29.383Z,83.10
2023-04-11T17:44:46.400Z,83.40
2023-04-11T17:47:06.775Z,84.00
2023-04-11T17:49:16.594Z,84.40
2023-04-11T17:51:58.877Z,85.00
2023-04-11T17:54:22.180Z,85.20
2023-04-11T17:56:51.326Z,85.10
2023-04-11T17:59:32.592Z,86.40
2023-04-11T18:02:08.015Z,87.50
2023-04-11T18:07:13.196Z,88.30
2023-04-11T18:13:25.927Z,89.10
2023-04-11T18:15:53.368Z,89.30
2023-04-11T18:19:01.685Z,90.30
2023-04-11T18:25:04.031Z,91.50
2023-04-11T18:27:20.602Z,92.00
2023-04-11T18:30:12.472Z,92.00
2023-04-11T18:32:49.773Z,92.20
2023-04-11T18:35:03.813Z,94.00
2023-04-11T18:37:14.102Z,95.00
2023-04-11T18:39:17.910Z,95.70
2023-04-11T18:41:26.595Z,94.80
2023-04-11T18:43:45.274Z,93.90
2023-04-11T18:45:56.219Z,93.40
2023-04-11T18:48:10.806Z,93.40
2023-04-11T18:50:17.481Z,93.10
2023-04-11T18:52:28.144Z,93.40
2023-04-11T18:54:58.669Z,93.50
2023-04-11T18:57:13.064Z,93.60
2023-04-11T18:59:42.010Z,93.60
2023-04-11T19:02:26.792Z,94.00
2023-04-11T19:05:03.250Z,94.00
2023-04-11T19:22:30.602Z,96.10
2023-04-11T19:42:26.405Z,96.90
2023-04-11T20:16:44.717Z,99.90
2023-04-11T20:20:39.929Z,99.90
2023-04-11T20:22:27.237Z,99.90
2023-04-11T20:25:33.251Z,99.90
2023-04-11T20:31:50.911Z,99.90
2023-04-11T20:34:15.868Z,99.90
2023-04-11T20:37:12.819Z,99.90
2023-04-11T20:57:59.464Z,99.90
2023-04-11T21:03:16.013Z,99.90
2023-04-11T21:14:17.395Z,99.90
2023-04-11T21:29:17.304Z,99.90
2023-04-11T21:35:23.378Z,99.90
2023-04-11T21:40:22.979Z,99.90
2023-04-11T21:46:41.192Z,99.90
2023-04-11T21:48:58.303Z,99.90
2023-04-11T21:54:49.409Z,99.90
2023-04-11T21:59:49.407Z,99.90
2023-04-11T22:07:39.148Z,99.90
2023-04-11T22:13:29.641Z,99.90
2023-04-11T22:16:11.469Z,99.90
2023-04-11T22:21:09.587Z,99.90
2023-04-11T22:23:44.637Z,99.90
2023-04-11T22:28:37.315Z,99.90
2023-04-11T22:30:49.916Z,99.90
2023-04-11T22:33:07.789Z,99.90
2023-04-11T22:35:42.374Z,99.90
2023-04-11T22:38:15.358Z,99.90
2023-04-11T22:40:49.259Z,99.90
2023-04-11T22:43:25.169Z,99.90
2023-04-11T22:45:43.308Z,99.90
2023-04-11T22:48:01.262Z,99.90
2023-04-11T22:50:19.097Z,99.90
2023-04-11T22:53:10.056Z,99.90
2023-04-11T22:55:43.951Z,99.90
2023-04-11T23:03:38.587Z,99.90
2023-04-11T23:06:27.468Z,99.90
2023-04-11T23:09:34.632Z,99.90
2023-04-11T23:12:36.792Z,99.90
2023-04-11T23:15:17.765Z,99.90
2023-04-11T23:17:27.362Z,99.90
2023-04-11T23:20:02.084Z,99.90
2023-04-11T23:22:25.044Z,99.90
2023-04-11T23:24:54.946Z,99.90
2023-04-11T23:27:27.198Z,99.90
2023-04-11T23:29:33.403Z,99.90
2023-04-11T23:31:47.099Z,99.90
2023-04-11T23:37:22.804Z,99.90
2023-04-11T23:39:32.583Z,99.90
2023-04-11T23:42:32.987Z,99.90
2023-04-11T23:44:43.398Z,99.90
2023-04-11T23:47:07.735Z,99.90
2023-04-11T23:50:08.256Z,99.90
2023-04-11T23:52:18.115Z,99.90
2023-04-11T23:54:44.327Z,99.90
2023-04-11T23:56:53.372Z,99.90
2023-04-11T23:59:12.622Z,99.90
